Terminal Aerodrome Forecast
Issued by NWS

Current Version | Previous Version | Text Only | Print | Product List | Glossary Off
Versions: 1 2 3 4 5 6 7 8 9 10 11 12 13 14 15 16 17 18 19

000
FTUS41 KPBZ 172337
TAFHLG
TAF
KHLG 172337Z 1800/1824 VRB05KT P6SM FEW040
     FM180900 00000KT 1SM BR SKC
     FM181300 00000KT P6SM FEW050=

USA.gov is the U.S. government's official web portal to all federal, state and local government web resources and services.